sensor_id;sensor_type;location;lat;lon;timestamp;temperature;humidity
21672;DHT22;10997;52.242;8.168;2022-12-24T00:04:32;9.80;99.90
21672;DHT22;10997;52.242;8.168;2022-12-24T00:09:33;9.80;99.90
21672;DHT22;10997;52.242;8.168;2022-12-24T00:14:33;9.80;99.90
21672;DHT22;10997;52.242;8.168;2022-12-24T00:19:34;9.80;99.90
21672;DHT22;10997;52.242;8.168;2022-12-24T00:24:35;9.80;99.90
21672;DHT22;10997;52.242;8.168;2022-12-24T00:29:36;9.80;99.90
21672;DHT22;10997;52.242;8.168;2022-12-24T00:34:37;9.80;99.90
21672;DHT22;10997;52.242;8.168;2022-12-24T00:39:38;9.80;99.90
21672;DHT22;10997;52.242;8.168;2022-12-24T00:44:38;9.80;99.90
21672;DHT22;10997;52.242;8.168;2022-12-24T00:49:39;9.70;99.90
21672;DHT22;10997;52.242;8.168;2022-12-24T00:54:39;9.80;99.90
21672;DHT22;10997;52.242;8.168;2022-12-24T00:59:40;9.70;99.90
21672;DHT22;10997;52.242;8.168;2022-12-24T01:04:41;9.70;99.90
21672;DHT22;10997;52.242;8.168;2022-12-24T01:10:00;9.70;99.90
21672;DHT22;10997;52.242;8.168;2022-12-24T01:15:01;9.70;99.90
21672;DHT22;10997;52.242;8.168;2022-12-24T01:20:04;9.70;99.90
21672;DHT22;10997;52.242;8.168;2022-12-24T01:30:49;9.80;99.90
21672;DHT22;10997;52.242;8.168;2022-12-24T01:35:50;9.80;99.90
21672;DHT22;10997;52.242;8.168;2022-12-24T01:40:51;9.80;99.90
21672;DHT22;10997;52.242;8.168;2022-12-24T01:46:18;9.80;99.90
21672;DHT22;10997;52.242;8.168;2022-12-24T01:51:31;9.80;99.90
21672;DHT22;10997;52.242;8.168;2022-12-24T01:56:35;9.70;99.90
21672;DHT22;10997;52.242;8.168;2022-12-24T02:01:36;9.70;99.90
21672;DHT22;10997;52.242;8.168;2022-12-24T02:06:37;9.60;99.90
21672;DHT22;10997;52.242;8.168;2022-12-24T02:11:38;9.60;99.90
21672;DHT22;10997;52.242;8.168;2022-12-24T02:17:04;9.60;99.90
21672;DHT22;10997;52.242;8.168;2022-12-24T02:38:36;9.70;99.90
21672;DHT22;10997;52.242;8.168;2022-12-24T02:43:43;9.60;99.90
21672;DHT22;10997;52.242;8.168;2022-12-24T02:48:46;9.60;99.90
21672;DHT22;10997;52.242;8.168;2022-12-24T02:53:48;9.50;99.90
21672;DHT22;10997;52.242;8.168;2022-12-24T03:04:21;9.60;99.90
21672;DHT22;10997;52.242;8.168;2022-12-24T03:09:50;9.60;99.90
21672;DHT22;10997;52.242;8.168;2022-12-24T03:14:53;9.60;99.90
21672;DHT22;10997;52.242;8.168;2022-12-24T03:19:54;9.60;99.90
21672;DHT22;10997;52.242;8.168;2022-12-24T03:24:55;9.60;99.90
21672;DHT22;10997;52.242;8.168;2022-12-24T03:29:56;9.50;99.90
21672;DHT22;10997;52.242;8.168;2022-12-24T03:34:57;9.40;99.90
21672;DHT22;10997;52.242;8.168;2022-12-24T03:39:58;9.40;99.90
21672;DHT22;10997;52.242;8.168;2022-12-24T03:44:58;9.50;99.90
21672;DHT22;10997;52.242;8.168;2022-12-24T03:49:59;9.60;99.90
21672;DHT22;10997;52.242;8.168;2022-12-24T03:55:00;9.60;99.90
21672;DHT22;10997;52.242;8.168;2022-12-24T04:00:02;9.60;99.90
21672;DHT22;10997;52.242;8.168;2022-12-24T04:05:03;9.50;99.90
21672;DHT22;10997;52.242;8.168;2022-12-24T04:10:04;9.50;99.90
21672;DHT22;10997;52.242;8.168;2022-12-24T04:15:05;9.40;99.90
21672;DHT22;10997;52.242;8.168;2022-12-24T04:20:07;9.40;99.90
21672;DHT22;10997;52.242;8.168;2022-12-24T04:25:08;9.50;99.90
21672;DHT22;10997;52.242;8.168;2022-12-24T04:30:09;9.50;99.90
21672;DHT22;10997;52.242;8.168;2022-12-24T04:35:09;9.40;99.90
21672;DHT22;10997;52.242;8.168;2022-12-24T04:40:10;9.40;99.90
21672;DHT22;10997;52.242;8.168;2022-12-24T04:45:11;9.40;99.90
21672;DHT22;10997;52.242;8.168;2022-12-24T04:50:11;9.40;99.90
21672;DHT22;10997;52.242;8.168;2022-12-24T04:55:12;9.40;99.90
21672;DHT22;10997;52.242;8.168;2022-12-24T05:00:13;9.40;99.90
21672;DHT22;10997;52.242;8.168;2022-12-24T05:05:14;9.40;99.90
21672;DHT22;10997;52.242;8.168;2022-12-24T05:10:14;9.30;99.90
21672;DHT22;10997;52.242;8.168;2022-12-24T05:15:15;9.30;99.90
21672;DHT22;10997;52.242;8.168;2022-12-24T05:20:16;9.30;99.90
21672;DHT22;10997;52.242;8.168;2022-12-24T05:25:16;9.30;99.90
21672;DHT22;10997;52.242;8.168;2022-12-24T05:30:35;9.30;99.90
21672;DHT22;10997;52.242;8.168;2022-12-24T05:35:36;9.30;99.90
21672;DHT22;10997;52.242;8.168;2022-12-24T05:40:37;9.30;99.90
21672;DHT22;10997;52.242;8.168;2022-12-24T05:45:37;9.20;99.90
21672;DHT22;10997;52.242;8.168;2022-12-24T05:50:39;9.20;99.90
21672;DHT22;10997;52.242;8.168;2022-12-24T05:55:39;9.10;99.90
21672;DHT22;10997;52.242;8.168;2022-12-24T06:00:40;9.10;99.90
21672;DHT22;10997;52.242;8.168;2022-12-24T06:05:40;9.10;99.90
21672;DHT22;10997;52.242;8.168;2022-12-24T06:10:41;9.20;99.90
21672;DHT22;10997;52.242;8.168;2022-12-24T06:15:42;9.20;99.90
21672;DHT22;10997;52.242;8.168;2022-12-24T06:20:42;9.20;99.90
21672;DHT22;10997;52.242;8.168;2022-12-24T06:25:43;9.10;99.90
21672;DHT22;10997;52.242;8.168;2022-12-24T06:30:48;9.10;99.90
21672;DHT22;10997;52.242;8.168;2022-12-24T06:35:49;9.10;99.90
21672;DHT22;10997;52.242;8.168;2022-12-24T06:40:49;9.10;99.90
21672;DHT22;10997;52.242;8.168;2022-12-24T06:45:50;9.20;99.90
21672;DHT22;10997;52.242;8.168;2022-12-24T06:50:51;9.20;99.90
21672;DHT22;10997;52.242;8.168;2022-12-24T06:55:52;9.20;99.90
21672;DHT22;10997;52.242;8.168;2022-12-24T07:06:54;9.20;99.90
21672;DHT22;10997;52.242;8.168;2022-12-24T07:11:54;9.20;99.90
21672;DHT22;10997;52.242;8.168;2022-12-24T07:16:55;9.10;99.90
21672;DHT22;10997;52.242;8.168;2022-12-24T07:21:56;9.10;99.90
21672;DHT22;10997;52.242;8.168;2022-12-24T07:26:57;9.10;99.90
21672;DHT22;10997;52.242;8.168;2022-12-24T07:31:57;9.10;99.90
21672;DHT22;10997;52.242;8.168;2022-12-24T07:37:01;9.10;99.90
21672;DHT22;10997;52.242;8.168;2022-12-24T07:42:01;9.10;99.90
21672;DHT22;10997;52.242;8.168;2022-12-24T07:47:04;9.10;99.90
21672;DHT22;10997;52.242;8.168;2022-12-24T07:52:05;9.00;99.90
21672;DHT22;10997;52.242;8.168;2022-12-24T07:57:06;9.00;99.90
21672;DHT22;10997;52.242;8.168;2022-12-24T08:02:09;9.00;99.90
21672;DHT22;10997;52.242;8.168;2022-12-24T08:07:10;9.10;99.90
21672;DHT22;10997;52.242;8.168;2022-12-24T08:12:11;9.20;99.90
21672;DHT22;10997;52.242;8.168;2022-12-24T08:17:11;9.20;99.90
21672;DHT22;10997;52.242;8.168;2022-12-24T08:22:12;9.20;99.90
21672;DHT22;10997;52.242;8.168;2022-12-24T08:27:12;9.20;99.90
21672;DHT22;10997;52.242;8.168;2022-12-24T08:32:13;9.20;99.90
21672;DHT22;10997;52.242;8.168;2022-12-24T08:37:14;9.20;99.90
21672;DHT22;10997;52.242;8.168;2022-12-24T08:42:15;9.20;99.90
21672;DHT22;10997;52.242;8.168;2022-12-24T08:47:15;9.30;99.90
21672;DHT22;10997;52.242;8.168;2022-12-24T08:52:16;9.30;99.90
21672;DHT22;10997;52.242;8.168;2022-12-24T08:57:17;9.30;99.90
21672;DHT22;10997;52.242;8.168;2022-12-24T09:02:19;9.40;99.90
21672;DHT22;10997;52.242;8.168;2022-12-24T09:07:20;9.40;99.90
21672;DHT22;10997;52.242;8.168;2022-12-24T09:12:20;9.40;99.90
21672;DHT22;10997;52.242;8.168;2022-12-24T09:17:21;9.40;99.90
21672;DHT22;10997;52.242;8.168;2022-12-24T09:22:22;9.40;99.90
21672;DHT22;10997;52.242;8.168;2022-12-24T09:27:22;9.40;99.90
21672;DHT22;10997;52.242;8.168;2022-12-24T09:32:23;9.40;99.90
21672;DHT22;10997;52.242;8.168;2022-12-24T09:37:24;9.40;99.90
21672;DHT22;10997;52.242;8.168;2022-12-24T09:47:40;9.50;99.90
21672;DHT22;10997;52.242;8.168;2022-12-24T09:52:41;9.50;99.90
21672;DHT22;10997;52.242;8.168;2022-12-24T09:57:43;9.40;99.90
21672;DHT22;10997;52.242;8.168;2022-12-24T10:02:46;9.30;99.90
21672;DHT22;10997;52.242;8.168;2022-12-24T10:07:58;9.30;99.90
21672;DHT22;10997;52.242;8.168;2022-12-24T10:13:11;9.40;99.90
21672;DHT22;10997;52.242;8.168;2022-12-24T10:18:34;9.40;99.90
21672;DHT22;10997;52.242;8.168;2022-12-24T10:24:11;9.50;99.90
21672;DHT22;10997;52.242;8.168;2022-12-24T10:29:19;9.60;99.90
21672;DHT22;10997;52.242;8.168;2022-12-24T10:34:23;9.70;99.90
21672;DHT22;10997;52.242;8.168;2022-12-24T10:39:25;9.80;99.90
21672;DHT22;10997;52.242;8.168;2022-12-24T10:44:29;9.80;99.90
21672;DHT22;10997;52.242;8.168;2022-12-24T10:49:45;9.90;99.90
21672;DHT22;10997;52.242;8.168;2022-12-24T10:55:06;9.90;99.90
21672;DHT22;10997;52.242;8.168;2022-12-24T11:00:22;9.90;99.90
21672;DHT22;10997;52.242;8.168;2022-12-24T11:10:28;10.00;99.90
21672;DHT22;10997;52.242;8.168;2022-12-24T11:15:33;10.00;99.90
21672;DHT22;10997;52.242;8.168;2022-12-24T11:20:34;10.00;99.90
21672;DHT22;10997;52.242;8.168;2022-12-24T11:25:37;10.10;99.90
21672;DHT22;10997;52.242;8.168;2022-12-24T11:30:40;10.20;99.90
21672;DHT22;10997;52.242;8.168;2022-12-24T11:35:47;10.20;99.90
21672;DHT22;10997;52.242;8.168;2022-12-24T11:40:57;10.20;99.90
21672;DHT22;10997;52.242;8.168;2022-12-24T11:46:11;10.20;99.90
21672;DHT22;10997;52.242;8.168;2022-12-24T11:51:24;10.30;99.90
21672;DHT22;10997;52.242;8.168;2022-12-24T12:01:59;10.60;99.90
21672;DHT22;10997;52.242;8.168;2022-12-24T12:07:27;10.70;99.90
21672;DHT22;10997;52.242;8.168;2022-12-24T12:12:44;10.90;99.90
21672;DHT22;10997;52.242;8.168;2022-12-24T12:17:59;10.80;99.90
21672;DHT22;10997;52.242;8.168;2022-12-24T12:23:14;10.70;99.90
21672;DHT22;10997;52.242;8.168;2022-12-24T12:28:34;10.60;99.90
21672;DHT22;10997;52.242;8.168;2022-12-24T12:33:40;10.80;99.90
21672;DHT22;10997;52.242;8.168;2022-12-24T12:38:42;10.90;99.90
21672;DHT22;10997;52.242;8.168;2022-12-24T12:49:32;10.90;99.90
21672;DHT22;10997;52.242;8.168;2022-12-24T12:54:50;11.00;99.90
21672;DHT22;10997;52.242;8.168;2022-12-24T13:00:02;10.90;99.90
21672;DHT22;10997;52.242;8.168;2022-12-24T13:21:02;10.30;99.90
21672;DHT22;10997;52.242;8.168;2022-12-24T13:26:10;10.10;99.90
21672;DHT22;10997;52.242;8.168;2022-12-24T13:36:20;10.10;99.90
21672;DHT22;10997;52.242;8.168;2022-12-24T13:46:52;10.10;99.90
21672;DHT22;10997;52.242;8.168;2022-12-24T13:57:42;10.10;99.90
21672;DHT22;10997;52.242;8.168;2022-12-24T14:07:56;9.90;99.90
21672;DHT22;10997;52.242;8.168;2022-12-24T14:12:58;9.90;99.90
21672;DHT22;10997;52.242;8.168;2022-12-24T14:17:58;10.00;99.90
21672;DHT22;10997;52.242;8.168;2022-12-24T14:22:59;10.00;99.90
21672;DHT22;10997;52.242;8.168;2022-12-24T14:28:06;10.10;99.90
21672;DHT22;10997;52.242;8.168;2022-12-24T14:33:35;10.10;99.90
21672;DHT22;10997;52.242;8.168;2022-12-24T14:38:36;10.20;99.90
21672;DHT22;10997;52.242;8.168;2022-12-24T14:49:06;10.20;99.90
21672;DHT22;10997;52.242;8.168;2022-12-24T14:54:33;10.10;99.90
21672;DHT22;10997;52.242;8.168;2022-12-24T15:05:24;10.10;99.90
21672;DHT22;10997;52.242;8.168;2022-12-24T15:10:32;10.00;99.90
21672;DHT22;10997;52.242;8.168;2022-12-24T15:15:34;9.90;99.90
21672;DHT22;10997;52.242;8.168;2022-12-24T15:20:35;9.80;99.90
21672;DHT22;10997;52.242;8.168;2022-12-24T15:25:36;9.60;99.90
21672;DHT22;10997;52.242;8.168;2022-12-24T15:30:37;9.50;99.90
21672;DHT22;10997;52.242;8.168;2022-12-24T15:35:57;9.40;99.90
21672;DHT22;10997;52.242;8.168;2022-12-24T15:40:59;9.30;99.90
21672;DHT22;10997;52.242;8.168;2022-12-24T15:46:01;9.20;99.90
21672;DHT22;10997;52.242;8.168;2022-12-24T15:51:03;9.10;99.90
21672;DHT22;10997;52.242;8.168;2022-12-24T16:01:33;9.00;99.90
21672;DHT22;10997;52.242;8.168;2022-12-24T16:06:54;8.90;99.90
21672;DHT22;10997;52.242;8.168;2022-12-24T16:11:55;8.90;99.90
21672;DHT22;10997;52.242;8.168;2022-12-24T16:16:56;8.80;99.90
21672;DHT22;10997;52.242;8.168;2022-12-24T16:21:59;8.80;99.90
21672;DHT22;10997;52.242;8.168;2022-12-24T16:27:24;8.70;99.90
21672;DHT22;10997;52.242;8.168;2022-12-24T16:32:34;8.70;99.90
21672;DHT22;10997;52.242;8.168;2022-12-24T16:37:34;8.70;99.90
21672;DHT22;10997;52.242;8.168;2022-12-24T16:42:35;8.60;99.90
21672;DHT22;10997;52.242;8.168;2022-12-24T16:47:58;8.50;99.90
21672;DHT22;10997;52.242;8.168;2022-12-24T16:52:59;8.50;99.90
21672;DHT22;10997;52.242;8.168;2022-12-24T16:58:00;8.40;99.90
21672;DHT22;10997;52.242;8.168;2022-12-24T17:03:00;8.40;99.90
21672;DHT22;10997;52.242;8.168;2022-12-24T17:08:01;8.30;99.90
21672;DHT22;10997;52.242;8.168;2022-12-24T17:13:02;8.30;99.90
21672;DHT22;10997;52.242;8.168;2022-12-24T17:18:03;8.20;99.90
21672;DHT22;10997;52.242;8.168;2022-12-24T17:23:04;8.20;99.90
21672;DHT22;10997;52.242;8.168;2022-12-24T17:28:04;8.20;99.90
21672;DHT22;10997;52.242;8.168;2022-12-24T17:33:05;8.10;99.90
21672;DHT22;10997;52.242;8.168;2022-12-24T17:38:06;8.00;99.90
21672;DHT22;10997;52.242;8.168;2022-12-24T17:43:07;7.90;99.90
21672;DHT22;10997;52.242;8.168;2022-12-24T17:48:07;8.00;99.90
21672;DHT22;10997;52.242;8.168;2022-12-24T17:53:08;8.00;99.90
21672;DHT22;10997;52.242;8.168;2022-12-24T17:58:10;7.90;99.90
21672;DHT22;10997;52.242;8.168;2022-12-24T18:03:14;7.90;99.90
21672;DHT22;10997;52.242;8.168;2022-12-24T18:08:15;7.80;99.90
21672;DHT22;10997;52.242;8.168;2022-12-24T18:13:16;7.80;99.90
21672;DHT22;10997;52.242;8.168;2022-12-24T18:18:16;7.80;99.90
21672;DHT22;10997;52.242;8.168;2022-12-24T18:23:17;7.70;99.90
21672;DHT22;10997;52.242;8.168;2022-12-24T18:28:18;7.60;99.90
21672;DHT22;10997;52.242;8.168;2022-12-24T18:33:18;7.60;99.90
21672;DHT22;10997;52.242;8.168;2022-12-24T18:38:19;7.50;99.90
21672;DHT22;10997;52.242;8.168;2022-12-24T18:43:20;7.50;99.90
21672;DHT22;10997;52.242;8.168;2022-12-24T18:48:20;7.50;99.90
21672;DHT22;10997;52.242;8.168;2022-12-24T18:53:21;7.40;99.90
21672;DHT22;10997;52.242;8.168;2022-12-24T18:58:22;7.30;99.90
21672;DHT22;10997;52.242;8.168;2022-12-24T19:03:23;7.20;99.90
21672;DHT22;10997;52.242;8.168;2022-12-24T19:08:23;7.20;99.90
21672;DHT22;10997;52.242;8.168;2022-12-24T19:13:24;7.10;99.90
21672;DHT22;10997;52.242;8.168;2022-12-24T19:18:24;7.10;99.90
21672;DHT22;10997;52.242;8.168;2022-12-24T19:23:25;7.10;99.90
21672;DHT22;10997;52.242;8.168;2022-12-24T19:28:30;7.10;99.90
21672;DHT22;10997;52.242;8.168;2022-12-24T19:33:36;7.00;99.90
21672;DHT22;10997;52.242;8.168;2022-12-24T19:38:37;7.00;99.90
21672;DHT22;10997;52.242;8.168;2022-12-24T19:43:39;6.90;99.90
21672;DHT22;10997;52.242;8.168;2022-12-24T19:48:41;6.90;99.90
21672;DHT22;10997;52.242;8.168;2022-12-24T19:53:42;6.90;99.90
21672;DHT22;10997;52.242;8.168;2022-12-24T19:58:43;7.00;99.90
21672;DHT22;10997;52.242;8.168;2022-12-24T20:03:45;7.00;99.90
21672;DHT22;10997;52.242;8.168;2022-12-24T20:08:46;6.90;99.90
21672;DHT22;10997;52.242;8.168;2022-12-24T20:13:46;6.80;99.90
21672;DHT22;10997;52.242;8.168;2022-12-24T20:19:01;6.70;99.90
21672;DHT22;10997;52.242;8.168;2022-12-24T20:24:03;6.70;99.90
21672;DHT22;10997;52.242;8.168;2022-12-24T20:29:08;6.70;99.90
21672;DHT22;10997;52.242;8.168;2022-12-24T20:34:09;6.60;99.90
21672;DHT22;10997;52.242;8.168;2022-12-24T20:39:12;6.50;99.90
21672;DHT22;10997;52.242;8.168;2022-12-24T20:44:13;6.40;99.90
21672;DHT22;10997;52.242;8.168;2022-12-24T20:49:13;6.20;99.90
21672;DHT22;10997;52.242;8.168;2022-12-24T20:54:14;6.10;99.90
21672;DHT22;10997;52.242;8.168;2022-12-24T20:59:15;6.00;99.90
21672;DHT22;10997;52.242;8.168;2022-12-24T21:04:15;5.90;99.90
21672;DHT22;10997;52.242;8.168;2022-12-24T21:09:16;5.80;99.90
21672;DHT22;10997;52.242;8.168;2022-12-24T21:14:21;5.70;99.90
21672;DHT22;10997;52.242;8.168;2022-12-24T21:19:23;5.70;99.90
21672;DHT22;10997;52.242;8.168;2022-12-24T21:24:24;5.70;99.90
21672;DHT22;10997;52.242;8.168;2022-12-24T21:29:25;5.70;99.90
21672;DHT22;10997;52.242;8.168;2022-12-24T21:34:25;5.70;99.90
21672;DHT22;10997;52.242;8.168;2022-12-24T21:39:26;5.70;99.90
21672;DHT22;10997;52.242;8.168;2022-12-24T21:44:27;5.70;99.90
21672;DHT22;10997;52.242;8.168;2022-12-24T21:49:27;5.80;99.90
21672;DHT22;10997;52.242;8.168;2022-12-24T21:54:47;5.80;99.90
21672;DHT22;10997;52.242;8.168;2022-12-24T21:59:49;5.90;99.90
21672;DHT22;10997;52.242;8.168;2022-12-24T22:04:50;5.90;99.90
21672;DHT22;10997;52.242;8.168;2022-12-24T22:09:51;6.00;99.90
21672;DHT22;10997;52.242;8.168;2022-12-24T22:15:10;6.00;99.90
21672;DHT22;10997;52.242;8.168;2022-12-24T22:20:11;6.10;99.90
21672;DHT22;10997;52.242;8.168;2022-12-24T22:25:12;6.20;99.90
21672;DHT22;10997;52.242;8.168;2022-12-24T22:30:13;6.20;99.90
21672;DHT22;10997;52.242;8.168;2022-12-24T22:35:14;6.30;99.90
21672;DHT22;10997;52.242;8.168;2022-12-24T22:40:14;6.30;99.90
21672;DHT22;10997;52.242;8.168;2022-12-24T22:45:15;6.40;99.90
21672;DHT22;10997;52.242;8.168;2022-12-24T22:50:16;6.40;99.90
21672;DHT22;10997;52.242;8.168;2022-12-24T22:55:16;6.40;99.90
21672;DHT22;10997;52.242;8.168;2022-12-24T23:00:41;6.40;99.90
21672;DHT22;10997;52.242;8.168;2022-12-24T23:05:43;6.40;99.90
21672;DHT22;10997;52.242;8.168;2022-12-24T23:10:43;6.40;99.90
21672;DHT22;10997;52.242;8.168;2022-12-24T23:15:44;6.40;99.90
21672;DHT22;10997;52.242;8.168;2022-12-24T23:20:45;6.30;99.90
21672;DHT22;10997;52.242;8.168;2022-12-24T23:25:45;6.20;99.90
21672;DHT22;10997;52.242;8.168;2022-12-24T23:30:56;6.10;99.90
21672;DHT22;10997;52.242;8.168;2022-12-24T23:35:57;6.00;99.90
21672;DHT22;10997;52.242;8.168;2022-12-24T23:40:59;5.90;99.90
21672;DHT22;10997;52.242;8.168;2022-12-24T23:46:00;5.90;99.90
21672;DHT22;10997;52.242;8.168;2022-12-24T23:51:10;5.80;99.90
21672;DHT22;10997;52.242;8.168;2022-12-24T23:56:12;5.80;99.90
